Lupton, Michigan
Current Conditions -  °F | °C
As of 1:33 AM on Wednesday 26 Nov 2014 (Local Time) from KOSC Reporting Station
Overcast Overcast  
Wind Chill: 29°   Ceiling: 2500
Heat Index: 29°   Visibility: 10mi
Dew Point: 24°   Wind: 0mph
Humidity: 82%   Direction: NA
Pressure: 30.19"   Gusts: NA
Location:  44.43°N, 84.03°W
Report Text: KOSC 260633Z AUTO 00000KT 10SM OVC025 M01/M04 A3019 RMK AO2 T10181045
Loading
Personal Weather Stations






























Interactive Weather Map New forecast layout! Learn more

10-Day Weather Forecast

Advertisements
Track Severe Weather on mobile